createdAt,value
2022-10-30T00:01:44.067Z,4.10
2022-10-30T00:04:11.100Z,3.60
2022-10-30T00:06:38.086Z,3.97
2022-10-30T00:09:05.038Z,2.65
2022-10-30T00:11:32.011Z,2.78
2022-10-30T00:13:59.107Z,2.90
2022-10-30T00:16:26.679Z,4.18
2022-10-30T00:18:54.504Z,2.95
2022-10-30T00:21:21.568Z,2.75
2022-10-30T00:23:50.315Z,3.10
2022-10-30T00:26:18.529Z,3.28
2022-10-30T00:28:50.560Z,3.30
2022-10-30T00:31:17.731Z,3.50
2022-10-30T00:33:48.726Z,3.25
2022-10-30T00:36:15.742Z,2.88
2022-10-30T00:38:42.973Z,2.95
2022-10-30T00:41:22.841Z,2.65
2022-10-30T00:43:50.075Z,3.17
2022-10-30T00:46:29.595Z,2.88
2022-10-30T00:49:00.665Z,2.50
2022-10-30T00:51:30.735Z,3.05
2022-10-30T00:54:00.623Z,3.60
2022-10-30T00:56:27.755Z,2.80
2022-10-30T00:59:02.366Z,2.63
2022-10-30T01:01:33.726Z,2.90
2022-10-30T01:04:02.575Z,2.72
2022-10-30T01:06:32.470Z,2.83
2022-10-30T01:09:00.324Z,2.88
2022-10-30T01:11:28.127Z,2.38
2022-10-30T01:13:58.774Z,2.03
2022-10-30T01:17:01.846Z,2.22
2022-10-30T01:19:48.606Z,3.45
2022-10-30T01:22:29.135Z,2.63
2022-10-30T01:25:15.052Z,2.85
2022-10-30T01:28:21.705Z,2.92
2022-10-30T01:31:21.077Z,2.70
2022-10-30T01:33:57.028Z,2.28
2022-10-30T01:37:06.371Z,3.08
2022-10-30T01:39:38.631Z,3.90
2022-10-30T01:42:30.989Z,3.50
2022-10-30T01:44:58.458Z,2.80
2022-10-30T01:47:56.059Z,2.97
2022-10-30T01:50:38.889Z,3.20
2022-10-30T01:53:35.039Z,3.10
2022-10-30T01:56:24.103Z,2.42
2022-10-30T01:59:13.567Z,2.70
2022-10-30T02:01:41.335Z,2.53
2022-10-30T02:04:10.565Z,2.50
2022-10-30T02:06:38.516Z,3.50
2022-10-30T02:09:06.220Z,2.95
2022-10-30T02:11:34.784Z,2.90
2022-10-30T02:14:06.761Z,2.85
2022-10-30T02:16:42.942Z,2.85
2022-10-30T02:19:10.338Z,2.15
2022-10-30T02:21:38.118Z,2.55
2022-10-30T02:24:05.514Z,2.42
2022-10-30T02:26:33.208Z,3.85
2022-10-30T02:29:02.167Z,3.78
2022-10-30T02:31:29.197Z,4.03
2022-10-30T02:33:56.224Z,4.30
2022-10-30T02:36:23.207Z,2.80
2022-10-30T02:38:50.178Z,2.25
2022-10-30T02:41:17.433Z,3.42
2022-10-30T02:43:44.449Z,2.35
2022-10-30T02:46:11.392Z,2.50
2022-10-30T02:48:38.432Z,2.75
2022-10-30T02:51:05.622Z,2.55
2022-10-30T02:53:34.168Z,2.65
2022-10-30T02:56:06.374Z,2.58
2022-10-30T02:58:35.149Z,2.53
2022-10-30T03:01:07.221Z,2.75
2022-10-30T03:03:35.439Z,3.05
2022-10-30T03:06:04.380Z,2.97
2022-10-30T03:08:31.420Z,2.25
2022-10-30T03:11:11.222Z,2.83
2022-10-30T03:13:40.930Z,3.00
2022-10-30T03:16:13.339Z,2.60
2022-10-30T03:18:40.763Z,2.92
2022-10-30T03:21:13.449Z,2.83
2022-10-30T03:23:40.646Z,2.40
2022-10-30T03:26:08.666Z,2.35
2022-10-30T03:28:51.446Z,2.90
2022-10-30T03:31:20.055Z,2.28
2022-10-30T03:33:54.978Z,3.08
2022-10-30T03:36:22.126Z,3.22
2022-10-30T03:38:49.140Z,4.03
2022-10-30T03:41:18.962Z,2.72
2022-10-30T03:43:45.989Z,3.47
2022-10-30T03:46:13.005Z,3.15
2022-10-30T03:48:40.157Z,3.15
2022-10-30T03:51:08.997Z,4.03
2022-10-30T03:53:36.110Z,2.42
2022-10-30T03:56:04.906Z,2.33
2022-10-30T03:58:44.200Z,2.40
2022-10-30T04:01:15.471Z,3.13
2022-10-30T04:03:46.960Z,2.30
2022-10-30T04:06:14.492Z,2.30
2022-10-30T04:08:41.535Z,3.65
2022-10-30T04:11:11.366Z,2.88
2022-10-30T04:13:39.204Z,3.47
2022-10-30T04:16:06.877Z,2.83
2022-10-30T04:18:34.532Z,2.80
2022-10-30T04:21:01.924Z,4.18
2022-10-30T04:23:29.273Z,3.90
2022-10-30T04:25:56.477Z,4.00
2022-10-30T04:28:23.635Z,4.20
2022-10-30T04:30:50.706Z,3.17
2022-10-30T04:33:18.298Z,3.75
2022-10-30T04:35:46.232Z,3.83
2022-10-30T04:38:19.663Z,3.35
2022-10-30T04:40:47.904Z,2.60
2022-10-30T04:43:15.825Z,3.83
2022-10-30T04:45:46.899Z,2.83
2022-10-30T04:48:15.793Z,2.65
2022-10-30T04:50:44.895Z,3.20
2022-10-30T04:53:19.552Z,3.05
2022-10-30T04:55:53.794Z,3.15
2022-10-30T04:58:21.311Z,2.65
2022-10-30T05:00:56.699Z,2.40
2022-10-30T05:03:27.588Z,2.83
2022-10-30T05:06:00.978Z,2.42
2022-10-30T05:10:57.335Z,3.13
2022-10-30T05:13:24.698Z,2.90
2022-10-30T05:15:55.122Z,3.53
2022-10-30T05:18:23.102Z,2.88
2022-10-30T05:20:50.219Z,3.13
2022-10-30T05:23:17.386Z,3.15
2022-10-30T05:25:44.484Z,4.10
2022-10-30T05:28:13.201Z,3.97
2022-10-30T05:30:52.372Z,4.40
2022-10-30T05:33:39.368Z,4.47
2022-10-30T05:36:06.633Z,4.20
2022-10-30T05:38:34.031Z,4.38
2022-10-30T05:41:01.591Z,4.22
2022-10-30T05:43:28.685Z,3.33
2022-10-30T05:45:56.003Z,4.07
2022-10-30T05:48:23.350Z,3.90
2022-10-30T05:50:51.198Z,3.67
2022-10-30T05:53:38.520Z,3.78
2022-10-30T05:56:06.743Z,4.63
2022-10-30T05:58:35.581Z,3.90
2022-10-30T06:01:08.494Z,3.40
2022-10-30T06:03:41.704Z,3.35
2022-10-30T06:06:08.726Z,2.97
2022-10-30T06:08:35.975Z,3.55
2022-10-30T06:11:15.534Z,3.60
2022-10-30T06:13:45.145Z,3.60
2022-10-30T06:16:14.596Z,3.17
2022-10-30T06:19:05.349Z,3.53
2022-10-30T06:21:34.063Z,3.20
2022-10-30T06:24:26.921Z,3.03
2022-10-30T06:27:13.322Z,3.67
2022-10-30T06:29:40.484Z,3.28
2022-10-30T06:32:08.685Z,3.42
2022-10-30T06:34:36.586Z,3.85
2022-10-30T06:37:03.740Z,3.80
2022-10-30T06:39:31.058Z,3.58
2022-10-30T06:42:18.779Z,3.72
2022-10-30T06:44:54.331Z,3.72
2022-10-30T06:47:21.437Z,3.80
2022-10-30T06:49:48.505Z,3.50
2022-10-30T06:52:17.233Z,3.95
2022-10-30T06:54:44.410Z,4.03
2022-10-30T06:57:34.972Z,2.85
2022-10-30T07:00:22.464Z,4.05
2022-10-30T07:03:15.670Z,3.47
2022-10-30T07:05:43.372Z,4.40
2022-10-30T07:08:10.392Z,3.60
2022-10-30T07:10:37.663Z,4.03
2022-10-30T07:13:23.146Z,4.43
2022-10-30T07:16:08.431Z,5.25
2022-10-30T07:18:38.656Z,6.50
2022-10-30T07:21:06.407Z,5.80
2022-10-30T07:23:33.483Z,4.57
2022-10-30T07:26:23.639Z,5.43
2022-10-30T07:28:52.514Z,4.50
2022-10-30T07:31:42.192Z,4.57
2022-10-30T07:34:28.434Z,3.72
2022-10-30T07:37:24.659Z,3.88
2022-10-30T07:40:12.537Z,3.90
2022-10-30T07:43:00.724Z,4.10
2022-10-30T07:45:46.698Z,4.60
2022-10-30T07:48:36.418Z,4.53
2022-10-30T07:51:08.317Z,4.53
2022-10-30T07:53:35.498Z,5.38
2022-10-30T07:56:04.230Z,5.00
2022-10-30T07:58:54.113Z,5.43
2022-10-30T08:02:00.946Z,4.85
2022-10-30T08:04:35.605Z,4.45
2022-10-30T08:07:32.341Z,4.65
2022-10-30T08:10:00.131Z,4.03
2022-10-30T08:12:27.961Z,3.70
2022-10-30T08:14:55.437Z,4.13
2022-10-30T08:17:22.480Z,3.97
2022-10-30T08:19:50.089Z,3.58
2022-10-30T08:22:17.834Z,3.78
2022-10-30T08:24:53.864Z,3.40
2022-10-30T08:27:20.805Z,4.05
2022-10-30T08:29:48.150Z,3.67
2022-10-30T08:32:15.122Z,4.13
2022-10-30T08:35:08.272Z,4.63
2022-10-30T08:40:02.262Z,5.07
2022-10-30T08:42:38.693Z,5.40
2022-10-30T08:45:10.371Z,4.57
2022-10-30T08:47:37.277Z,4.60
2022-10-30T08:50:04.484Z,4.32
2022-10-30T09:13:30.200Z,4.72
2022-10-30T09:16:02.538Z,5.53
2022-10-30T09:21:03.123Z,8.60
2022-10-30T09:26:23.354Z,10.57
2022-10-30T09:29:10.544Z,8.45
2022-10-30T09:31:43.487Z,7.13
2022-10-30T09:34:14.838Z,6.60
2022-10-30T09:36:47.698Z,6.55
2022-10-30T09:39:14.968Z,7.10
2022-10-30T09:44:31.045Z,7.30
2022-10-30T09:47:06.118Z,9.57
2022-10-30T09:49:50.930Z,8.63
2022-10-30T09:52:30.535Z,8.95
2022-10-30T09:55:13.147Z,13.00
2022-10-30T15:00:30.602Z,11.50
2022-10-30T15:03:15.641Z,9.73
2022-10-30T15:06:04.283Z,11.73
2022-10-30T15:09:05.148Z,10.57
2022-10-30T15:11:57.499Z,12.10
2022-10-30T15:17:25.283Z,11.27
2022-10-30T15:19:52.538Z,12.05
2022-10-30T15:22:23.169Z,11.05
2022-10-30T15:24:51.702Z,10.27
2022-10-30T15:27:21.439Z,10.60
2022-10-30T15:29:55.273Z,10.90
2022-10-30T15:32:24.449Z,12.23
2022-10-30T15:35:04.701Z,11.90
2022-10-30T15:37:32.313Z,12.82
2022-10-30T15:40:18.877Z,12.48
2022-10-30T15:42:47.401Z,12.52
2022-10-30T15:45:24.708Z,12.52
2022-10-30T15:48:06.693Z,13.15
2022-10-30T15:50:35.210Z,12.40
2022-10-30T15:53:02.642Z,15.43
2022-10-30T15:55:32.353Z,12.07
2022-10-30T15:58:04.762Z,12.68
2022-10-30T16:00:35.527Z,12.60
2022-10-30T16:03:12.510Z,12.77
2022-10-30T16:05:39.656Z,12.65
2022-10-30T16:08:15.167Z,12.32
2022-10-30T16:10:44.132Z,13.05
2022-10-30T16:13:18.549Z,12.15
2022-10-30T16:15:47.571Z,12.52
2022-10-30T16:18:25.973Z,12.40
2022-10-30T16:20:58.285Z,11.95
2022-10-30T16:23:25.296Z,13.18
2022-10-30T16:25:58.508Z,12.48
2022-10-30T16:28:32.614Z,14.30
2022-10-30T16:31:04.707Z,13.32
2022-10-30T16:33:34.058Z,13.32
2022-10-30T16:36:03.595Z,13.90
2022-10-30T16:38:36.935Z,14.07
2022-10-30T16:41:13.406Z,14.70
2022-10-30T16:43:44.045Z,12.63
2022-10-30T16:46:17.050Z,13.88
2022-10-30T16:48:55.231Z,13.07
2022-10-30T16:51:22.936Z,13.70
2022-10-30T16:53:52.343Z,14.63
2022-10-30T16:56:27.779Z,14.93
2022-10-30T16:58:59.074Z,14.23
2022-10-30T17:01:29.702Z,14.05
2022-10-30T17:03:58.280Z,13.68
2022-10-30T17:06:41.142Z,13.52
2022-10-30T17:09:27.439Z,14.38
2022-10-30T17:12:22.454Z,14.68
2022-10-30T17:14:52.285Z,14.80
2022-10-30T17:17:35.480Z,13.68
2022-10-30T17:20:21.824Z,14.07
2022-10-30T17:23:05.656Z,12.75
2022-10-30T17:25:37.785Z,13.70
2022-10-30T17:28:05.669Z,13.52
2022-10-30T17:30:43.305Z,13.10
2022-10-30T17:33:37.742Z,12.68
2022-10-30T17:36:05.744Z,12.95
2022-10-30T17:38:33.190Z,13.02
2022-10-30T17:41:00.868Z,12.48
2022-10-30T17:43:47.019Z,11.95
2022-10-30T17:46:19.255Z,11.88
2022-10-30T17:51:19.754Z,11.07
2022-10-30T17:53:48.404Z,11.35
2022-10-30T17:56:26.698Z,10.10
2022-10-30T17:58:54.539Z,9.43
2022-10-30T18:01:25.119Z,10.80
2022-10-30T18:03:55.239Z,9.13
2022-10-30T18:06:25.769Z,9.85
2022-10-30T18:08:53.573Z,9.88
2022-10-30T18:11:23.703Z,9.32
2022-10-30T18:13:52.394Z,9.38
2022-10-30T18:16:20.183Z,8.73
2022-10-30T18:18:47.158Z,8.52
2022-10-30T18:21:19.372Z,8.98
2022-10-30T18:23:52.427Z,9.88
2022-10-30T18:26:23.900Z,8.65
2022-10-30T18:28:51.106Z,7.97
2022-10-30T18:31:20.546Z,7.38
2022-10-30T18:33:48.255Z,6.90
2022-10-30T18:36:17.577Z,7.32
2022-10-30T18:38:44.630Z,7.25
2022-10-30T18:41:16.272Z,6.88
2022-10-30T18:43:46.665Z,6.60
2022-10-30T18:46:15.598Z,6.93
2022-10-30T18:48:42.725Z,6.85
2022-10-30T18:51:23.048Z,6.55
2022-10-30T18:53:53.463Z,7.22
2022-10-30T18:56:28.956Z,6.40
2022-10-30T18:59:01.526Z,5.90
2022-10-30T19:04:04.494Z,5.05
2022-10-30T19:06:34.930Z,5.65
2022-10-30T19:09:02.033Z,5.68
2022-10-30T19:11:31.413Z,5.40
2022-10-30T19:13:59.173Z,5.97
2022-10-30T19:16:26.216Z,6.03
2022-10-30T19:18:53.441Z,5.43
2022-10-30T19:21:24.955Z,5.65
2022-10-30T19:23:52.215Z,5.93
2022-10-30T19:26:19.602Z,4.88
2022-10-30T19:28:46.609Z,4.55
2022-10-30T19:31:15.502Z,4.88
2022-10-30T19:33:43.384Z,4.78
2022-10-30T19:36:27.067Z,4.30
2022-10-30T19:38:54.635Z,5.35
2022-10-30T19:41:21.889Z,5.20
2022-10-30T19:43:48.798Z,4.90
2022-10-30T19:46:15.790Z,5.13
2022-10-30T19:48:59.507Z,5.93
2022-10-30T19:51:28.984Z,4.00
2022-10-30T19:53:56.407Z,3.92
2022-10-30T19:56:23.914Z,4.97
2022-10-30T19:58:52.142Z,5.18
2022-10-30T20:01:19.415Z,5.63
2022-10-30T20:03:46.501Z,4.65
2022-10-30T20:06:14.353Z,4.43
2022-10-30T20:08:41.694Z,4.38
2022-10-30T20:11:08.999Z,5.47
2022-10-30T20:13:37.345Z,4.88
2022-10-30T20:16:05.885Z,4.47
2022-10-30T20:18:35.556Z,4.07
2022-10-30T20:21:08.249Z,4.30
2022-10-30T20:23:35.699Z,4.30
2022-10-30T20:26:05.864Z,5.00
2022-10-30T20:28:38.530Z,4.72
2022-10-30T20:31:07.392Z,4.18
2022-10-30T20:33:35.035Z,5.15
2022-10-30T20:36:02.500Z,4.45
2022-10-30T20:38:33.101Z,4.55
2022-10-30T20:41:03.043Z,3.75
2022-10-30T20:43:33.221Z,4.90
2022-10-30T20:46:01.516Z,3.70
2022-10-30T20:48:29.515Z,4.63
2022-10-30T20:50:58.199Z,3.95
2022-10-30T20:53:26.138Z,4.53
2022-10-30T20:55:53.260Z,3.97
2022-10-30T20:58:20.856Z,4.45
2022-10-30T21:00:48.344Z,4.03
2022-10-30T21:03:15.792Z,4.50
2022-10-30T21:05:45.652Z,4.60
2022-10-30T21:08:16.239Z,4.50
2022-10-30T21:10:43.236Z,4.35
2022-10-30T21:13:11.602Z,3.83
2022-10-30T21:15:40.436Z,3.80
2022-10-30T21:18:09.413Z,4.03
2022-10-30T21:20:37.302Z,4.75
2022-10-30T21:23:04.982Z,4.93
2022-10-30T21:25:32.492Z,5.22
2022-10-30T21:28:00.416Z,5.05
2022-10-30T21:30:28.414Z,4.97
2022-10-30T21:32:55.469Z,4.40
2022-10-30T21:35:22.655Z,4.50
2022-10-30T21:37:49.889Z,4.18
2022-10-30T21:40:16.928Z,4.53
2022-10-30T21:42:46.907Z,4.35
2022-10-30T21:45:13.854Z,5.13
2022-10-30T21:47:40.760Z,4.50
2022-10-30T21:50:12.240Z,5.07
2022-10-30T21:52:40.197Z,4.10
2022-10-30T21:55:08.034Z,3.83
2022-10-30T21:57:35.164Z,4.93
2022-10-30T22:00:05.752Z,3.78
2022-10-30T22:02:35.435Z,3.80
2022-10-30T22:05:02.345Z,4.25
2022-10-30T22:07:29.347Z,3.67
2022-10-30T22:09:56.383Z,3.83
2022-10-30T22:12:23.462Z,4.18
2022-10-30T22:14:50.579Z,4.15
2022-10-30T22:17:17.553Z,4.18
2022-10-30T22:19:44.464Z,4.75
2022-10-30T22:22:11.459Z,4.28
2022-10-30T22:24:38.572Z,4.05
2022-10-30T22:27:05.538Z,4.88
2022-10-30T22:29:32.492Z,4.15
2022-10-30T22:31:59.454Z,4.22
2022-10-30T22:34:26.383Z,3.65
2022-10-30T22:36:53.307Z,3.78
2022-10-30T22:39:20.288Z,4.63
2022-10-30T22:41:47.244Z,4.22
2022-10-30T22:44:17.609Z,3.55
2022-10-30T22:46:45.304Z,3.53
2022-10-30T22:49:16.881Z,3.35
2022-10-30T22:51:44.145Z,3.78
2022-10-30T22:54:12.476Z,4.47
2022-10-30T22:56:40.655Z,3.70
2022-10-30T22:59:13.160Z,3.08
2022-10-30T23:01:41.709Z,4.07
2022-10-30T23:04:10.799Z,3.80
2022-10-30T23:06:37.996Z,4.10
2022-10-30T23:09:08.813Z,3.35
2022-10-30T23:11:35.906Z,3.80
2022-10-30T23:14:02.898Z,4.57
2022-10-30T23:16:30.325Z,3.50
2022-10-30T23:18:58.783Z,4.75
2022-10-30T23:21:30.230Z,4.40
2022-10-30T23:23:58.193Z,4.18
2022-10-30T23:26:31.171Z,3.72
2022-10-30T23:28:59.708Z,4.32
2022-10-30T23:31:36.486Z,3.95
2022-10-30T23:34:14.903Z,5.13
2022-10-30T23:36:43.312Z,4.25
2022-10-30T23:39:15.199Z,3.97
2022-10-30T23:41:42.590Z,3.20
2022-10-30T23:44:14.809Z,3.58
2022-10-30T23:46:42.441Z,3.70
2022-10-30T23:49:09.407Z,3.42
2022-10-30T23:51:36.424Z,3.60
2022-10-30T23:54:03.569Z,3.30
2022-10-30T23:56:30.702Z,4.18
2022-10-30T23:58:58.077Z,4.30
